Huvudsida
METAR-TAF:

METAR-TAF

Flygplatser :

Khartoum, Sudan

latitud: 15-36N, longitud: 032-33E, höjd: 382 m

Aktuellt väderrapport

Denna rapport gjordes för 39 minuter sedan, klockan 07:30 UTC
Vind 7 kt från syd/sydväst
Temperatur 35°C
Fuktighet 30%
Tryck 1012 hPa
Sikt 10 km eller mer
Inga moln under 1 500 m eller inga cumulonimbus

METAR: HSSS 270730Z 20007KT CAVOK 35/15 Q1012 NOSIG

Tid: 11:09 (08:09 UTC)

Väderprognos

Denna rapport gjordes för 3 timmar och 9 minuter sedan, klockan 05:00 UTC
Prognos gäller från 27 kl. 06 UTC till 28 kl. 12 UTC
Vind 8 kt från sydväst i byarna ända upp till 18 kt
Sikt 10 km eller mer
Få moln på en höjd av 4000 ft
Spridda moln på en höjd av 14000 ft
Temporärt
från 27 kl. 06 UTC till 27 kl. 09 UTC
Sikt: 4000 m
högt sanddrev
Temporärt
från 27 kl. 16 UTC till 27 kl. 20 UTC
Sikt: 4000 m
Få moln på en höjd av 4500 ft, Cumulonimbus.
åska, regn

TAF: HSSS 270500Z 2706/2812 22008G18KT 9999 FEW040 SCT140 TEMPO 2706/2709 4000 BLSA TEMPO 2716/2720 4000 TSRA FEW045CB

Aktuella väderrapporter och prognoser från 4000 flygplatser (METAR- och TAF-rapporter).

De tillgängliga stationerna syns som gula och röda prickar på kartan.

För musen över prickarna för att se namnen på stationerna.

Klicka sedan för att få väderrapporter och prognoser.

För att ändra kartan: Klicka på de gröna knapparna med ett svart kors på för att zooma in; den gröna knappen med ett streck på för att zooma ut; eller på de gröna pilarna för angränsande kartor.


METAR-TAF: